KHSB/HSB METAR and TAF weather

Enter ICAO airport designator
Station Type Date Time Source
KHSB METAR 2022/06/28 08:15 UTC NOAA

KHSB 280815Z AUTO 00000KT 10SM CLR 16/09 A3023 RMK AO2 T01580092


Station Type Date Time Source
KHSB Decoded METAR 2022/06/28 08:15 UTC NOAA

Harrisburg, Harrisburg-Raleigh Airport, IL, United States (KHSB) 37-48-41N 088-32-57W
Jun 28, 2022 - 04:15 AM EDT / 2022.06.28 0815 UTC
Wind: Calm:0
Visibility: 10 mile(s):0
Sky conditions: clear
Temperature: 60.4 F (15.8 C)
Dew Point: 48.6 F (9.2 C)
Relative Humidity: 64%
Pressure (altimeter): 30.23 in. Hg (1023 hPa)
ob: KHSB 280815Z AUTO 00000KT 10SM CLR 16/09 A3023 RMK AO2 T01580092
cycle: 8

Station Type Date Time Source
KHSB TAF UTC NOAA

Error!

Example: see airport list